createdAt,value
2017-11-29T00:00:12.639Z,96710.17
2017-11-29T00:00:44.372Z,96712.38
2017-11-29T00:01:16.012Z,96711.53
2017-11-29T00:01:47.655Z,96713.23
2017-11-29T00:02:19.297Z,96714.95
2017-11-29T00:02:50.939Z,96716.64
2017-11-29T00:03:22.580Z,96717.08
2017-11-29T00:03:54.222Z,96715.52
2017-11-29T00:04:25.899Z,96717.31
2017-11-29T00:04:57.528Z,96716.89
2017-11-29T00:05:29.152Z,96708.37
2017-11-29T00:06:02.020Z,96713.98
2017-11-29T00:06:33.661Z,96708.82
2017-11-29T00:07:05.305Z,96716.02
2017-11-29T00:07:36.948Z,96712.55
2017-11-29T00:08:08.591Z,96712.97
2017-11-29T00:08:40.537Z,96716.02
2017-11-29T00:09:12.186Z,96713.47
2017-11-29T00:09:43.851Z,96710.44
2017-11-29T00:10:15.476Z,96707.96
2017-11-29T00:10:47.308Z,96713.80
2017-11-29T00:11:19.052Z,96710.91
2017-11-29T00:11:50.695Z,96707.86
2017-11-29T00:12:22.643Z,96714.27
2017-11-29T00:12:54.284Z,96713.48
2017-11-29T00:13:25.924Z,96707.96
2017-11-29T00:13:57.569Z,96716.09
2017-11-29T00:14:29.210Z,96711.27
2017-11-29T00:15:00.875Z,96714.27
2017-11-29T00:15:32.500Z,96715.16
2017-11-29T00:16:04.171Z,96712.19
2017-11-29T00:16:35.794Z,96713.48
2017-11-29T00:17:07.423Z,96713.06
2017-11-29T00:17:39.063Z,96711.38
2017-11-29T00:18:10.705Z,96710.09
2017-11-29T00:18:42.336Z,96718.64
2017-11-29T00:19:13.988Z,96713.92
2017-11-29T00:19:45.631Z,96716.97
2017-11-29T00:20:17.275Z,96716.13
2017-11-29T00:20:49.159Z,96719.96
2017-11-29T00:21:20.819Z,96713.16
2017-11-29T00:21:52.446Z,96719.10
2017-11-29T00:22:24.071Z,96716.99
2017-11-29T00:22:55.697Z,96718.77
2017-11-29T00:23:27.319Z,96718.71
2017-11-29T00:23:59.073Z,96714.02
2017-11-29T00:24:30.720Z,96716.27
2017-11-29T00:25:02.663Z,96715.06
2017-11-29T00:25:34.613Z,96717.52
2017-11-29T00:26:06.275Z,96711.97
2017-11-29T00:26:37.944Z,96712.33
2017-11-29T00:27:09.573Z,96713.66
2017-11-29T00:27:41.203Z,96709.75
2017-11-29T00:28:12.829Z,96712.41
2017-11-29T00:28:44.703Z,96715.41
2017-11-29T00:29:16.351Z,96715.81
2017-11-29T00:29:48.056Z,96716.23
2017-11-29T00:30:19.799Z,96712.88
2017-11-29T00:30:51.646Z,96709.46
2017-11-29T00:31:23.294Z,96720.05
2017-11-29T00:31:54.929Z,96713.24
2017-11-29T00:32:26.591Z,96712.80
2017-11-29T00:32:58.219Z,96717.09
2017-11-29T00:33:29.884Z,96720.95
2017-11-29T00:34:01.519Z,96714.13
2017-11-29T00:34:33.142Z,96717.91
2017-11-29T00:35:04.780Z,96721.78
2017-11-29T00:35:36.702Z,96719.26
2017-11-29T00:36:08.327Z,96717.85
2017-11-29T00:36:39.953Z,96720.46
2017-11-29T00:37:11.584Z,96716.66
2017-11-29T00:37:43.219Z,96717.54
2017-11-29T00:38:14.844Z,96719.20
2017-11-29T00:38:46.582Z,96720.82
2017-11-29T00:39:18.223Z,96720.48
2017-11-29T00:39:49.865Z,96720.53
2017-11-29T00:40:21.532Z,96717.17
2017-11-29T00:40:53.196Z,96719.73
2017-11-29T00:41:24.820Z,96717.98
2017-11-29T00:41:56.442Z,96716.34
2017-11-29T00:42:28.386Z,96716.70
2017-11-29T00:43:00.024Z,96717.93
2017-11-29T00:43:31.666Z,96711.99
2017-11-29T00:44:03.307Z,96718.06
2017-11-29T00:44:34.958Z,96712.92
2017-11-29T00:45:06.900Z,96714.15
2017-11-29T00:45:39.153Z,96719.20
2017-11-29T00:46:10.798Z,96718.30
2017-11-29T00:46:42.467Z,96717.07
2017-11-29T00:47:14.091Z,96719.20
2017-11-29T00:47:45.897Z,96718.79
2017-11-29T00:48:17.528Z,96719.67
2017-11-29T00:48:49.159Z,96715.74
2017-11-29T00:49:20.791Z,96721.27
2017-11-29T00:49:52.421Z,96717.07
2017-11-29T00:50:24.048Z,96719.62
2017-11-29T00:50:55.682Z,96719.62
2017-11-29T00:51:27.530Z,96723.02
2017-11-29T00:51:59.199Z,96725.09
2017-11-29T00:52:30.855Z,96726.47
2017-11-29T00:53:02.708Z,96726.42
2017-11-29T00:53:34.342Z,96725.61
2017-11-29T00:54:05.988Z,96726.47
2017-11-29T00:54:37.625Z,96723.94
2017-11-29T00:55:09.327Z,96726.97
2017-11-29T00:55:40.965Z,96731.27
2017-11-29T00:56:12.608Z,96721.47
2017-11-29T00:56:44.250Z,96729.45
2017-11-29T00:57:15.940Z,96728.61
2017-11-29T00:57:47.566Z,96730.72
2017-11-29T00:58:19.203Z,96732.83
2017-11-29T00:58:50.836Z,96729.84
2017-11-29T00:59:22.464Z,96731.45
2017-11-29T00:59:54.102Z,96731.53
2017-11-29T01:00:26.054Z,96729.71
2017-11-29T01:00:57.704Z,96730.59
2017-11-29T01:01:29.340Z,96726.37
2017-11-29T01:02:01.205Z,96727.19
2017-11-29T01:02:32.925Z,96730.59
2017-11-29T01:03:04.620Z,96730.57
2017-11-29T01:03:36.250Z,96732.70
2017-11-29T01:04:07.878Z,96734.45
2017-11-29T01:04:39.503Z,96731.03
2017-11-29T01:05:11.146Z,96731.11
2017-11-29T01:05:42.779Z,96727.20
2017-11-29T01:06:14.418Z,96720.53
2017-11-29T01:06:46.291Z,96727.39
2017-11-29T01:07:17.944Z,96729.11
2017-11-29T01:07:49.574Z,96721.81
2017-11-29T01:08:21.243Z,96726.99
2017-11-29T01:08:52.876Z,96726.01
2017-11-29T01:09:24.500Z,96724.86
2017-11-29T01:09:56.128Z,96728.69
2017-11-29T01:10:27.763Z,96730.84
2017-11-29T01:10:59.502Z,96728.69
2017-11-29T01:11:31.145Z,96729.98
2017-11-29T01:12:02.816Z,96729.98
2017-11-29T01:12:34.439Z,96728.30
2017-11-29T01:13:06.112Z,96732.13
2017-11-29T01:13:37.739Z,96725.45
2017-11-29T01:14:09.386Z,96735.17
2017-11-29T01:14:41.011Z,96730.51
2017-11-29T01:15:12.643Z,96733.08
2017-11-29T01:15:44.516Z,96733.08
2017-11-29T01:16:16.143Z,96728.42
2017-11-29T01:16:47.871Z,96732.22
2017-11-29T01:17:19.512Z,96729.27
2017-11-29T01:17:51.157Z,96729.77
2017-11-29T01:18:22.824Z,96728.96
2017-11-29T01:18:54.459Z,96731.45
2017-11-29T01:19:26.094Z,96730.06
2017-11-29T01:19:58.029Z,96726.72
2017-11-29T01:20:29.671Z,96730.09
2017-11-29T01:21:01.313Z,96733.48
2017-11-29T01:21:32.955Z,96730.92
2017-11-29T01:22:04.597Z,96735.66
2017-11-29T01:22:36.239Z,96738.16
2017-11-29T01:23:08.190Z,96738.09
2017-11-29T01:23:40.137Z,96732.18
2017-11-29T01:24:12.087Z,96734.67
2017-11-29T01:24:43.752Z,96732.62
2017-11-29T01:25:15.391Z,96741.55
2017-11-29T01:25:47.015Z,96729.23
2017-11-29T01:26:18.962Z,96736.03
2017-11-29T01:26:50.600Z,96730.97
2017-11-29T01:27:22.244Z,96736.89
2017-11-29T01:27:53.915Z,96731.83
2017-11-29T01:28:25.540Z,96734.00
2017-11-29T01:28:57.212Z,96729.77
2017-11-29T01:29:28.840Z,96730.09
2017-11-29T01:30:00.468Z,96726.28
2017-11-29T01:30:32.405Z,96721.62
2017-11-29T01:31:04.048Z,96724.64
2017-11-29T01:31:35.691Z,96727.64
2017-11-29T01:32:07.331Z,96728.89
2017-11-29T01:32:38.977Z,96720.81
2017-11-29T01:33:10.651Z,96724.69
2017-11-29T01:33:42.275Z,96720.03
2017-11-29T01:34:13.911Z,96722.53
2017-11-29T01:34:45.549Z,96719.12
2017-11-29T01:35:17.183Z,96721.67
2017-11-29T01:35:48.824Z,96719.17
2017-11-29T01:36:20.461Z,96721.23
2017-11-29T01:36:52.103Z,96714.44
2017-11-29T01:37:23.747Z,96715.70
2017-11-29T01:37:55.389Z,96716.93
2017-11-29T01:38:27.113Z,96713.96
2017-11-29T01:38:58.742Z,96714.88
2017-11-29T01:39:30.371Z,96715.34
2017-11-29T01:40:02.001Z,96714.48
2017-11-29T01:40:33.643Z,96711.36
2017-11-29T01:41:05.284Z,96714.69
2017-11-29T01:41:36.908Z,96710.86
2017-11-29T01:42:08.795Z,96715.95
2017-11-29T01:42:40.428Z,96715.95
2017-11-29T01:43:12.055Z,96713.73
2017-11-29T01:43:43.687Z,96713.73
2017-11-29T01:44:15.312Z,96715.90
2017-11-29T01:44:47.042Z,96720.17
2017-11-29T01:45:18.781Z,96712.41
2017-11-29T01:45:50.632Z,96716.78
2017-11-29T01:46:22.260Z,96722.28
2017-11-29T01:46:53.913Z,96719.33
2017-11-29T01:47:25.587Z,96722.72
2017-11-29T01:47:57.212Z,96716.28
2017-11-29T01:48:29.151Z,96715.90
2017-11-29T01:49:00.791Z,96719.31
2017-11-29T01:49:32.616Z,96716.34
2017-11-29T01:50:04.382Z,96721.81
2017-11-29T01:50:36.025Z,96719.33
2017-11-29T01:51:07.670Z,96718.50
2017-11-29T01:51:39.316Z,96721.89
2017-11-29T01:52:10.949Z,96721.22
2017-11-29T01:52:42.616Z,96718.34
2017-11-29T01:53:14.247Z,96715.23
2017-11-29T01:53:46.080Z,96711.03
2017-11-29T01:54:17.825Z,96722.73
2017-11-29T01:54:49.775Z,96710.92
2017-11-29T01:55:21.419Z,96711.52
2017-11-29T01:55:54.590Z,96706.08
2017-11-29T01:56:26.234Z,96711.75
2017-11-29T01:56:58.068Z,96706.23
2017-11-29T01:57:29.827Z,96709.95
2017-11-29T01:58:01.468Z,96707.09
2017-11-29T01:58:33.109Z,96704.56
2017-11-29T01:59:04.776Z,96716.93
2017-11-29T01:59:36.399Z,96712.20
2017-11-29T02:00:08.344Z,96709.14
2017-11-29T02:00:39.986Z,96709.59
2017-11-29T02:01:11.634Z,96712.98
2017-11-29T02:01:43.576Z,96712.98
2017-11-29T02:02:15.220Z,96716.36
2017-11-29T02:02:47.174Z,96716.44
2017-11-29T02:03:18.839Z,96719.05
2017-11-29T02:03:50.470Z,96711.38
2017-11-29T02:04:22.095Z,96715.53
2017-11-29T02:04:53.735Z,96710.92
2017-11-29T02:05:25.377Z,96714.30
2017-11-29T02:05:57.863Z,96713.84
2017-11-29T02:06:29.527Z,96709.66
2017-11-29T02:07:01.168Z,96708.31
2017-11-29T02:07:32.804Z,96708.73
2017-11-29T02:08:04.427Z,96715.19
2017-11-29T02:08:36.051Z,96717.33
2017-11-29T02:09:07.792Z,96714.25
2017-11-29T02:09:39.433Z,96718.60
2017-11-29T02:10:11.060Z,96711.80
2017-11-29T02:10:43.024Z,96709.66
2017-11-29T02:11:14.665Z,96714.02
2017-11-29T02:11:46.334Z,96709.69
2017-11-29T02:12:18.001Z,96710.06
2017-11-29T02:12:49.628Z,96713.47
2017-11-29T02:13:21.252Z,96710.38
2017-11-29T02:13:53.119Z,96711.78
2017-11-29T02:14:24.748Z,96710.48
2017-11-29T02:14:56.371Z,96708.83
2017-11-29T02:15:28.109Z,96711.41
2017-11-29T02:15:59.750Z,96705.02
2017-11-29T02:16:31.375Z,96706.72
2017-11-29T02:17:03.044Z,96708.00
2017-11-29T02:17:34.908Z,96712.69
2017-11-29T02:18:06.532Z,96709.80
2017-11-29T02:18:38.268Z,96710.23
2017-11-29T02:19:10.217Z,96704.69
2017-11-29T02:19:41.883Z,96711.05
2017-11-29T02:20:13.520Z,96703.02
2017-11-29T02:20:45.453Z,96708.47
2017-11-29T02:21:17.399Z,96704.27
2017-11-29T02:21:49.040Z,96704.38
2017-11-29T02:22:20.714Z,96708.13
2017-11-29T02:22:52.339Z,96704.25
2017-11-29T02:23:23.972Z,96708.86
2017-11-29T02:23:55.601Z,96703.36
2017-11-29T02:24:27.249Z,96706.77
2017-11-29T02:24:58.892Z,96702.09
2017-11-29T02:25:30.533Z,96704.59
2017-11-29T02:26:02.176Z,96707.22
2017-11-29T02:26:33.818Z,96702.45
2017-11-29T02:27:05.443Z,96710.50
2017-11-29T02:27:37.111Z,96707.58
2017-11-29T02:28:08.977Z,96709.23
2017-11-29T02:28:40.600Z,96702.87
2017-11-29T02:29:12.335Z,96707.95
2017-11-29T02:29:43.976Z,96705.42
2017-11-29T02:30:15.654Z,96704.17
2017-11-29T02:30:47.284Z,96700.61
2017-11-29T02:31:18.957Z,96707.77
2017-11-29T02:31:50.584Z,96704.48
2017-11-29T02:32:22.219Z,96705.76
2017-11-29T02:32:53.884Z,96702.34
2017-11-29T02:33:25.511Z,96706.57
2017-11-29T02:33:57.144Z,96701.86
2017-11-29T02:34:28.783Z,96701.91
2017-11-29T02:35:00.413Z,96697.73
2017-11-29T02:35:32.043Z,96699.35
2017-11-29T02:36:03.679Z,96701.16
2017-11-29T02:36:35.340Z,96703.28
2017-11-29T02:37:07.201Z,96699.75
2017-11-29T02:37:38.834Z,96700.11
2017-11-29T02:38:10.480Z,96702.17
2017-11-29T02:38:42.120Z,96700.81
2017-11-29T02:39:13.787Z,96701.63
2017-11-29T02:39:45.421Z,96701.70
2017-11-29T02:40:17.051Z,96694.98
2017-11-29T02:40:48.680Z,96702.20
2017-11-29T02:41:20.310Z,96703.47
2017-11-29T02:41:52.049Z,96700.08
2017-11-29T02:42:23.690Z,96695.50
2017-11-29T02:42:55.331Z,96700.48
2017-11-29T02:43:26.972Z,96699.69
2017-11-29T02:43:58.639Z,96693.80
2017-11-29T02:44:30.264Z,96698.89
2017-11-29T02:45:01.905Z,96691.64
2017-11-29T02:45:33.532Z,96698.08
2017-11-29T02:46:05.182Z,96692.87
2017-11-29T02:46:37.047Z,96694.22
2017-11-29T02:47:08.711Z,96693.31
2017-11-29T02:47:40.341Z,96691.15
2017-11-29T02:48:11.974Z,96689.35
2017-11-29T02:48:43.604Z,96685.50
2017-11-29T02:49:15.235Z,96697.41
2017-11-29T02:49:46.908Z,96690.75
2017-11-29T02:50:18.531Z,96690.86
2017-11-29T02:50:50.267Z,96690.81
2017-11-29T02:51:21.911Z,96690.84
2017-11-29T02:51:53.551Z,96682.71
2017-11-29T02:52:25.192Z,96692.14
2017-11-29T02:52:56.880Z,96689.53
2017-11-29T02:53:28.522Z,96686.92
2017-11-29T02:54:00.148Z,96692.84
2017-11-29T02:54:31.783Z,96688.58
2017-11-29T02:55:03.409Z,96689.35
2017-11-29T02:55:35.271Z,96685.08
2017-11-29T02:56:06.907Z,96686.44
2017-11-29T02:56:38.543Z,96689.43
2017-11-29T02:57:10.276Z,96691.55
2017-11-29T02:57:41.910Z,96691.56
2017-11-29T02:58:13.584Z,96693.70
2017-11-29T02:58:45.211Z,96688.94
2017-11-29T02:59:16.845Z,96688.16
2017-11-29T02:59:48.487Z,96693.31
2017-11-29T03:00:20.127Z,96691.95
2017-11-29T03:00:51.769Z,96687.81
2017-11-29T03:01:23.414Z,96689.53
2017-11-29T03:01:55.253Z,96685.70
2017-11-29T03:02:27.003Z,96691.67
2017-11-29T03:02:58.685Z,96692.09
2017-11-29T03:03:31.055Z,96690.86
2017-11-29T03:04:03.095Z,96696.38
2017-11-29T03:04:34.720Z,96695.06
2017-11-29T03:05:06.343Z,96685.60
2017-11-29T03:05:38.083Z,96687.81
2017-11-29T03:06:09.812Z,96688.17
2017-11-29T03:06:41.675Z,96688.62
2017-11-29T03:07:13.317Z,96688.20
2017-11-29T03:07:44.959Z,96686.98
2017-11-29T03:08:16.627Z,96690.05
2017-11-29T03:08:48.264Z,96693.91
2017-11-29T03:09:19.899Z,96694.64
2017-11-29T03:09:51.534Z,96696.48
2017-11-29T03:10:23.200Z,96691.28
2017-11-29T03:10:54.866Z,96692.66
2017-11-29T03:11:26.499Z,96695.16
2017-11-29T03:11:58.127Z,96693.80
2017-11-29T03:12:29.756Z,96695.97
2017-11-29T03:13:01.379Z,96693.39
2017-11-29T03:13:33.054Z,96689.95
2017-11-29T03:14:04.683Z,96697.72
2017-11-29T03:14:36.309Z,96692.97
2017-11-29T03:15:08.139Z,96696.36
2017-11-29T03:15:39.902Z,96690.42
2017-11-29T03:16:11.947Z,96692.14
2017-11-29T03:16:43.740Z,96694.27
2017-11-29T03:17:15.387Z,96690.44
2017-11-29T03:17:47.023Z,96694.27
2017-11-29T03:18:18.660Z,96691.28
2017-11-29T03:18:50.360Z,96693.39
2017-11-29T03:19:22.201Z,96693.05
2017-11-29T03:19:53.951Z,96695.63
2017-11-29T03:20:25.592Z,96696.52
2017-11-29T03:20:57.235Z,96691.82
2017-11-29T03:21:28.875Z,96691.05
2017-11-29T03:22:00.518Z,96689.71
2017-11-29T03:22:32.168Z,96688.80
2017-11-29T03:23:03.801Z,96687.13
2017-11-29T03:23:42.499Z,96689.69
2017-11-29T03:24:14.771Z,96689.27
2017-11-29T03:24:46.716Z,96683.72
2017-11-29T03:25:18.355Z,96685.44
2017-11-29T03:25:50.005Z,96688.08
2017-11-29T03:26:21.755Z,96688.08
2017-11-29T03:26:53.392Z,96680.46
2017-11-29T03:27:25.072Z,96686.37
2017-11-29T03:27:56.700Z,96687.22
2017-11-29T03:28:28.330Z,96683.83
2017-11-29T03:28:59.957Z,96685.94
2017-11-29T03:29:31.799Z,96678.62
2017-11-29T03:30:03.444Z,96683.62
2017-11-29T03:30:35.326Z,96687.95
2017-11-29T03:31:06.960Z,96686.23
2017-11-29T03:31:38.590Z,96687.97
2017-11-29T03:32:10.224Z,96683.30
2017-11-29T03:32:41.900Z,96689.27
2017-11-29T03:33:13.524Z,96687.13
2017-11-29T03:33:45.156Z,96688.05
2017-11-29T03:34:17.803Z,96693.94
2017-11-29T03:34:49.443Z,96689.71
2017-11-29T03:35:21.092Z,96689.69
2017-11-29T03:35:53.038Z,96690.98
2017-11-29T03:36:24.985Z,96692.31
2017-11-29T03:36:56.626Z,96689.79
2017-11-29T03:37:28.271Z,96689.34
2017-11-29T03:37:59.948Z,96690.60
2017-11-29T03:38:31.570Z,96691.91
2017-11-29T03:39:03.198Z,96691.41
2017-11-29T03:39:34.836Z,96691.41
2017-11-29T03:40:06.477Z,96693.89
2017-11-29T03:40:38.120Z,96692.61
2017-11-29T03:41:09.763Z,96693.83
2017-11-29T03:41:41.404Z,96696.91
2017-11-29T03:42:13.048Z,96693.47
2017-11-29T03:42:44.687Z,96695.52
2017-11-29T03:43:16.343Z,96699.84
2017-11-29T03:43:47.978Z,96701.07
2017-11-29T03:44:19.614Z,96699.33
2017-11-29T03:44:51.254Z,96703.99
2017-11-29T03:45:22.896Z,96700.66
2017-11-29T03:45:54.538Z,96697.22
2017-11-29T03:46:26.181Z,96699.67
2017-11-29T03:46:57.825Z,96701.34
2017-11-29T03:47:29.464Z,96705.69
2017-11-29T03:48:01.095Z,96700.58
2017-11-29T03:48:32.793Z,96695.11
2017-11-29T03:49:04.423Z,96694.58
2017-11-29T03:49:36.051Z,96698.49
2017-11-29T03:50:07.909Z,96693.73
2017-11-29T03:50:39.535Z,96695.94
2017-11-29T03:51:11.271Z,96695.50
2017-11-29T03:51:42.909Z,96697.48
2017-11-29T03:52:14.549Z,96693.99
2017-11-29T03:52:46.190Z,96696.89
2017-11-29T03:53:17.834Z,96696.39
2017-11-29T03:53:49.516Z,96694.31
2017-11-29T03:54:21.144Z,96693.40
2017-11-29T03:54:52.768Z,96696.73
2017-11-29T03:55:24.407Z,96692.02
2017-11-29T03:55:56.044Z,96694.39
2017-11-29T03:56:27.679Z,96696.58
2017-11-29T03:56:59.325Z,96699.13
2017-11-29T03:57:30.967Z,96691.89
2017-11-29T03:58:02.611Z,96691.08
2017-11-29T03:58:34.250Z,96694.91
2017-11-29T03:59:06.004Z,96699.97
2017-11-29T03:59:38.080Z,96694.33
2017-11-29T04:00:09.704Z,96697.30
2017-11-29T04:00:41.435Z,96696.50
2017-11-29T04:01:13.075Z,96690.56
2017-11-29T04:01:44.719Z,96698.69
2017-11-29T04:02:16.361Z,96696.11
2017-11-29T04:02:48.001Z,96700.33
2017-11-29T04:03:19.642Z,96692.70
2017-11-29T04:03:51.284Z,96697.36
2017-11-29T04:04:22.926Z,96693.95
2017-11-29T04:04:54.572Z,96696.84
2017-11-29T04:05:26.260Z,96694.68
2017-11-29T04:05:57.883Z,96694.63
2017-11-29T04:06:29.512Z,96691.66
2017-11-29T04:07:01.148Z,96693.45
2017-11-29T04:07:33.089Z,96693.45
2017-11-29T04:08:04.729Z,96690.90
2017-11-29T04:08:36.371Z,96692.59
2017-11-29T04:09:08.321Z,96698.09
2017-11-29T04:09:39.958Z,96693.89
2017-11-29T04:10:11.601Z,96684.94
2017-11-29T04:10:43.276Z,96697.26
2017-11-29T04:11:14.904Z,96695.13
2017-11-29T04:11:46.543Z,96690.04
2017-11-29T04:12:18.374Z,96691.19
2017-11-29T04:12:50.121Z,96687.83
2017-11-29T04:13:21.760Z,96687.91
2017-11-29T04:13:53.411Z,96687.05
2017-11-29T04:14:25.297Z,96682.82
2017-11-29T04:14:56.923Z,96686.29
2017-11-29T04:15:28.548Z,96687.56
2017-11-29T04:16:00.219Z,96682.45
2017-11-29T04:16:31.867Z,96681.52
2017-11-29T04:17:03.505Z,96682.90
2017-11-29T04:17:35.156Z,96680.87
2017-11-29T04:18:06.786Z,96682.70
2017-11-29T04:18:38.411Z,96684.73
2017-11-29T04:19:10.036Z,96682.53
2017-11-29T04:19:41.774Z,96682.09
2017-11-29T04:20:13.412Z,96683.73
2017-11-29T04:20:45.054Z,96677.80
2017-11-29T04:21:16.724Z,96682.82
2017-11-29T04:21:48.360Z,96684.95
2017-11-29T04:22:19.988Z,96682.48
2017-11-29T04:22:51.647Z,96679.22
2017-11-29T04:23:23.273Z,96676.25
2017-11-29T04:23:54.908Z,96678.89
2017-11-29T04:24:26.547Z,96677.61
2017-11-29T04:24:58.187Z,96678.86
2017-11-29T04:25:29.860Z,96675.97
2017-11-29T04:26:01.496Z,96679.85
2017-11-29T04:26:33.123Z,96682.34
2017-11-29T04:27:04.756Z,96678.94
2017-11-29T04:27:36.398Z,96683.70
2017-11-29T04:28:08.074Z,96678.28
2017-11-29T04:28:39.709Z,96676.67
2017-11-29T04:29:11.336Z,96675.73
2017-11-29T04:29:43.276Z,96680.83
2017-11-29T04:30:15.118Z,96679.22
2017-11-29T04:30:46.867Z,96677.06
2017-11-29T04:31:18.507Z,96678.36
2017-11-29T04:31:50.148Z,96678.38
2017-11-29T04:32:21.791Z,96675.08
2017-11-29T04:32:53.431Z,96681.80
2017-11-29T04:33:25.115Z,96679.27
2017-11-29T04:33:56.743Z,96677.61
2017-11-29T04:34:28.367Z,96678.57
2017-11-29T04:35:00.011Z,96675.63
2017-11-29T04:35:31.951Z,96677.36
2017-11-29T04:36:03.593Z,96676.09
2017-11-29T04:36:35.232Z,96676.92
2017-11-29T04:37:06.876Z,96676.09
2017-11-29T04:37:38.524Z,96677.55
2017-11-29T04:38:10.161Z,96677.97
2017-11-29T04:38:41.847Z,96679.29
2017-11-29T04:39:14.367Z,96677.66
2017-11-29T04:39:46.189Z,96678.09
2017-11-29T04:40:17.959Z,96675.56
2017-11-29T04:40:49.788Z,96676.40
2017-11-29T04:41:21.549Z,96679.73
2017-11-29T04:41:53.194Z,96677.57
2017-11-29T04:42:25.057Z,96677.55
2017-11-29T04:42:56.684Z,96682.05
2017-11-29T04:43:28.327Z,96681.61
2017-11-29T04:44:00.017Z,96671.50
2017-11-29T04:44:31.644Z,96673.95
2017-11-29T04:45:03.273Z,96681.72
2017-11-29T04:45:34.900Z,96681.72
2017-11-29T04:46:06.587Z,96680.86
2017-11-29T04:46:38.212Z,96676.63
2017-11-29T04:47:09.836Z,96681.67
2017-11-29T04:47:41.464Z,96678.37
2017-11-29T04:48:13.202Z,96678.17
2017-11-29T04:48:44.842Z,96679.92
2017-11-29T04:49:16.490Z,96676.95
2017-11-29T04:49:48.123Z,96680.77
2017-11-29T04:50:19.768Z,96676.92
2017-11-29T04:50:51.415Z,96677.66
2017-11-29T04:51:23.080Z,96677.13
2017-11-29T04:51:54.719Z,96687.81
2017-11-29T04:52:26.343Z,96680.55
2017-11-29T04:52:58.000Z,96676.67
2017-11-29T04:53:29.631Z,96675.91
2017-11-29T04:54:01.263Z,96683.91
2017-11-29T04:54:33.617Z,96679.97
2017-11-29T04:55:05.445Z,96674.55
2017-11-29T04:55:37.079Z,96680.89
2017-11-29T04:56:08.751Z,96679.64
2017-11-29T04:56:40.419Z,96677.42
2017-11-29T04:57:12.043Z,96676.22
2017-11-29T04:57:43.676Z,96671.98
2017-11-29T04:58:15.315Z,96668.59
2017-11-29T04:58:47.183Z,96669.71
2017-11-29T04:59:18.812Z,96673.05
2017-11-29T04:59:50.552Z,96673.47
2017-11-29T05:00:22.247Z,96666.67
2017-11-29T05:00:53.878Z,96674.30
2017-11-29T05:01:25.503Z,96668.70
2017-11-29T05:01:57.167Z,96673.83
2017-11-29T05:02:28.800Z,96667.87
2017-11-29T05:03:00.441Z,96674.30
2017-11-29T05:03:32.088Z,96669.45
2017-11-29T05:04:03.719Z,96673.28
2017-11-29T05:04:35.359Z,96670.59
2017-11-29T05:05:06.988Z,96671.54
2017-11-29T05:05:38.679Z,96674.02
2017-11-29T05:06:10.312Z,96672.73
2017-11-29T05:06:41.939Z,96671.09
2017-11-29T05:07:13.562Z,96675.89
2017-11-29T05:07:45.187Z,96670.73
2017-11-29T05:08:17.133Z,96668.67
2017-11-29T05:08:49.079Z,96667.42
2017-11-29T05:09:21.027Z,96669.53
2017-11-29T05:09:52.666Z,96667.87
2017-11-29T05:10:24.549Z,96672.06
2017-11-29T05:10:56.232Z,96669.12
2017-11-29T05:11:27.874Z,96672.42
2017-11-29T05:11:59.545Z,96665.99
2017-11-29T05:12:31.185Z,96672.31
2017-11-29T05:13:02.824Z,96671.44
2017-11-29T05:13:34.466Z,96672.73
2017-11-29T05:14:06.136Z,96672.81
2017-11-29T05:14:37.773Z,96671.83
2017-11-29T05:15:09.405Z,96669.72
2017-11-29T05:15:41.308Z,96676.52
2017-11-29T05:16:12.988Z,96671.77
2017-11-29T05:16:44.625Z,96669.17
2017-11-29T05:17:16.267Z,96671.30
2017-11-29T05:17:47.911Z,96675.16
2017-11-29T05:18:19.551Z,96677.30
2017-11-29T05:18:51.194Z,96667.69
2017-11-29T05:19:22.841Z,96671.83
2017-11-29T05:19:54.477Z,96671.83
2017-11-29T05:20:26.121Z,96670.99
2017-11-29T05:20:57.803Z,96670.05
2017-11-29T05:21:29.428Z,96671.83
2017-11-29T05:22:01.051Z,96661.90
2017-11-29T05:22:32.675Z,96668.05
2017-11-29T05:23:04.330Z,96673.20
2017-11-29T05:23:36.016Z,96675.39
2017-11-29T05:24:07.640Z,96675.39
2017-11-29T05:24:39.267Z,96673.66
2017-11-29T05:25:11.205Z,96672.40
2017-11-29T05:25:42.843Z,96675.81
2017-11-29T05:26:14.477Z,96673.67
2017-11-29T05:26:46.134Z,96683.03
2017-11-29T05:27:19.189Z,96673.66
2017-11-29T05:27:50.820Z,96678.70
2017-11-29T05:28:22.456Z,96675.70
2017-11-29T05:28:54.143Z,96677.90
2017-11-29T05:29:25.780Z,96679.62
2017-11-29T05:29:57.526Z,96674.52
2017-11-29T05:30:29.180Z,96684.70
2017-11-29T05:31:00.807Z,96681.31
2017-11-29T05:31:32.444Z,96681.23
2017-11-29T05:32:04.090Z,96678.16
2017-11-29T05:32:35.731Z,96680.69
2017-11-29T05:33:07.659Z,96681.56
2017-11-29T05:33:39.320Z,96684.94
2017-11-29T05:34:10.984Z,96681.19
2017-11-29T05:34:42.617Z,96684.53
2017-11-29T05:35:14.482Z,96680.79
2017-11-29T05:35:46.157Z,96688.91
2017-11-29T05:36:17.836Z,96689.00
2017-11-29T05:36:49.721Z,96684.33
2017-11-29T05:37:21.343Z,96684.77
2017-11-29T05:37:52.972Z,96685.72
2017-11-29T05:38:24.611Z,96686.26
2017-11-29T05:38:56.353Z,96683.23
2017-11-29T05:39:28.028Z,96690.73
2017-11-29T05:40:00.251Z,96687.61
2017-11-29T05:40:31.923Z,96683.45
2017-11-29T05:41:03.552Z,96686.47
2017-11-29T05:41:35.484Z,96685.16
2017-11-29T05:42:07.156Z,96679.59
2017-11-29T05:42:38.783Z,96682.53
2017-11-29T05:43:10.717Z,96685.61
2017-11-29T05:43:42.550Z,96686.55
2017-11-29T05:44:14.234Z,96683.08
2017-11-29T05:44:45.860Z,96683.69
2017-11-29T05:45:17.592Z,96682.84
2017-11-29T05:45:49.479Z,96685.37
2017-11-29T05:46:21.110Z,96684.56
2017-11-29T05:46:52.743Z,96685.50
2017-11-29T05:47:24.367Z,96684.72
2017-11-29T05:47:55.996Z,96683.36
2017-11-29T05:48:27.750Z,96680.81
2017-11-29T05:48:59.388Z,96678.36
2017-11-29T05:49:31.063Z,96685.50
2017-11-29T05:50:03.589Z,96683.91
2017-11-29T05:50:35.238Z,96684.25
2017-11-29T05:51:06.871Z,96687.32
2017-11-29T05:51:38.521Z,96688.26
2017-11-29T05:52:10.162Z,96691.25
2017-11-29T05:52:42.116Z,96689.95
2017-11-29T05:53:14.066Z,96690.00
2017-11-29T05:53:45.712Z,96690.44
2017-11-29T05:54:17.356Z,96693.91
2017-11-29T05:54:49.020Z,96691.82
2017-11-29T05:55:20.644Z,96691.80
2017-11-29T05:55:52.580Z,96692.66
2017-11-29T05:56:24.221Z,96695.60
2017-11-29T05:56:55.864Z,96695.52
2017-11-29T05:57:27.503Z,96695.23
2017-11-29T05:57:59.144Z,96690.34
2017-11-29T05:58:30.776Z,96695.23
2017-11-29T05:59:02.436Z,96699.90
2017-11-29T05:59:34.060Z,96697.34
2017-11-29T06:00:05.712Z,96691.88
2017-11-29T06:00:37.353Z,96691.38
2017-11-29T06:01:08.999Z,96695.75
2017-11-29T06:01:40.947Z,96697.42
2017-11-29T06:02:12.586Z,96698.20
2017-11-29T06:02:44.230Z,96693.17
2017-11-29T06:03:15.871Z,96697.42
2017-11-29T06:03:47.541Z,96694.81
2017-11-29T06:04:19.166Z,96691.88
2017-11-29T06:04:50.808Z,96691.91
2017-11-29T06:05:22.661Z,96691.82
2017-11-29T06:05:54.303Z,96689.69
2017-11-29T06:06:25.960Z,96693.16
2017-11-29T06:06:57.590Z,96696.06
2017-11-29T06:07:29.235Z,96692.68
2017-11-29T06:08:00.866Z,96692.77
2017-11-29T06:08:32.600Z,96695.31
2017-11-29T06:09:04.239Z,96688.95
2017-11-29T06:09:35.911Z,96691.09
2017-11-29T06:10:08.418Z,96694.43
2017-11-29T06:10:40.343Z,96696.09
2017-11-29T06:11:11.976Z,96690.67
2017-11-29T06:11:43.600Z,96694.03
2017-11-29T06:12:15.231Z,96697.01